createdAt,value
2023-02-11T00:01:31.071Z,47.55
2023-02-11T00:03:58.460Z,42.15
2023-02-11T00:06:26.184Z,42.28
2023-02-11T00:08:53.259Z,41.28
2023-02-11T00:11:21.369Z,47.50
2023-02-11T00:13:48.848Z,41.83
2023-02-11T00:16:17.656Z,46.08
2023-02-11T00:18:44.888Z,46.17
2023-02-11T00:21:32.215Z,44.42
2023-02-11T00:24:02.080Z,46.35
2023-02-11T00:26:31.826Z,48.10
2023-02-11T00:28:59.189Z,42.30
2023-02-11T00:31:26.445Z,43.42
2023-02-11T00:33:53.615Z,47.20
2023-02-11T00:36:25.324Z,42.00
2023-02-11T00:38:53.110Z,50.67
2023-02-11T00:41:20.813Z,42.03
2023-02-11T00:43:47.913Z,43.08
2023-02-11T00:46:15.605Z,41.38
2023-02-11T00:48:42.888Z,43.92
2023-02-11T00:51:10.429Z,44.20
2023-02-11T00:53:37.885Z,45.65
2023-02-11T00:56:05.203Z,46.28
2023-02-11T00:58:32.335Z,45.65
2023-02-11T01:00:59.389Z,43.78
2023-02-11T01:03:26.499Z,40.15
2023-02-11T01:05:53.523Z,42.00
2023-02-11T01:08:20.587Z,43.05
2023-02-11T01:10:54.651Z,49.88
2023-02-11T01:13:21.790Z,40.55
2023-02-11T01:15:49.117Z,48.17
2023-02-11T01:18:16.496Z,44.40
2023-02-11T01:20:43.538Z,47.38
2023-02-11T01:23:10.655Z,40.88
2023-02-11T01:25:37.664Z,42.25
2023-02-11T01:28:04.828Z,42.33
2023-02-11T01:30:32.009Z,40.88
2023-02-11T01:32:59.024Z,42.13
2023-02-11T01:35:26.165Z,44.65
2023-02-11T01:37:53.253Z,44.92
2023-02-11T01:40:20.252Z,49.42
2023-02-11T01:42:49.443Z,43.35
2023-02-11T01:45:36.771Z,48.58
2023-02-11T01:48:03.810Z,44.63
2023-02-11T01:50:31.326Z,40.15
2023-02-11T01:53:18.665Z,44.17
2023-02-11T01:56:04.611Z,42.33
2023-02-11T01:58:33.299Z,38.30
2023-02-11T02:01:01.710Z,40.17
2023-02-11T02:03:29.422Z,41.83
2023-02-11T02:06:07.120Z,39.42
2023-02-11T02:08:47.535Z,44.97
2023-02-11T02:11:14.602Z,38.47
2023-02-11T02:13:41.710Z,38.70
2023-02-11T02:16:12.397Z,40.53
2023-02-11T02:18:51.500Z,40.47
2023-02-11T02:21:41.350Z,37.50
2023-02-11T02:24:27.310Z,36.80
2023-02-11T02:27:06.479Z,45.35
2023-02-11T02:29:39.572Z,48.35
2023-02-11T02:32:29.028Z,45.30
2023-02-11T02:34:58.892Z,43.50
2023-02-11T02:37:35.209Z,52.30
2023-02-11T02:40:04.227Z,40.97
2023-02-11T02:42:31.757Z,42.95
2023-02-11T02:44:58.809Z,38.72
2023-02-11T02:47:25.853Z,40.15
2023-02-11T02:49:52.885Z,37.75
2023-02-11T02:52:38.682Z,44.38
2023-02-11T02:55:08.819Z,43.00
2023-02-11T02:57:59.748Z,40.08
2023-02-11T03:00:46.930Z,44.78
2023-02-11T03:03:23.018Z,41.15
2023-02-11T03:06:04.691Z,44.70
2023-02-11T03:08:35.258Z,42.15
2023-02-11T03:11:02.877Z,41.55
2023-02-11T03:13:33.508Z,43.85
2023-02-11T03:16:04.062Z,42.10
2023-02-11T03:18:34.371Z,44.35
2023-02-11T03:21:02.648Z,40.42
2023-02-11T03:23:48.168Z,42.15
2023-02-11T03:26:19.026Z,45.30
2023-02-11T03:28:56.179Z,41.42
2023-02-11T03:31:33.732Z,45.35
2023-02-11T03:34:03.776Z,39.72
2023-02-11T03:36:36.764Z,46.83
2023-02-11T03:39:04.433Z,46.63
2023-02-11T03:41:31.819Z,43.97
2023-02-11T03:43:59.036Z,40.15
2023-02-11T03:46:31.251Z,39.38
2023-02-11T03:49:01.664Z,37.47
2023-02-11T03:51:29.756Z,44.00
2023-02-11T03:53:58.486Z,42.88
2023-02-11T03:56:27.550Z,43.15
2023-02-11T03:58:55.727Z,41.72
2023-02-11T04:01:22.948Z,41.55
2023-02-11T04:03:49.976Z,44.47
2023-02-11T04:06:17.083Z,41.80
2023-02-11T04:08:44.125Z,44.05
2023-02-11T04:11:11.174Z,46.30
2023-02-11T04:13:38.209Z,43.25
2023-02-11T04:16:05.386Z,35.53
2023-02-11T04:18:32.475Z,44.45
2023-02-11T04:20:59.536Z,41.38
2023-02-11T04:23:26.567Z,41.25
2023-02-11T04:25:53.594Z,41.95
2023-02-11T04:28:20.623Z,41.80
2023-02-11T04:30:47.753Z,40.47
2023-02-11T04:33:14.825Z,46.08
2023-02-11T04:35:41.864Z,40.60
2023-02-11T04:38:08.905Z,40.03
2023-02-11T04:40:36.201Z,40.70
2023-02-11T04:43:03.270Z,41.25
2023-02-11T04:45:30.278Z,50.15
2023-02-11T04:47:57.361Z,42.85
2023-02-11T04:50:24.447Z,41.25
2023-02-11T04:52:52.551Z,42.40
2023-02-11T04:55:19.631Z,40.00
2023-02-11T04:57:46.675Z,41.20
2023-02-11T05:00:14.120Z,42.05
2023-02-11T05:02:41.306Z,42.83
2023-02-11T05:05:08.596Z,44.78
2023-02-11T05:07:35.790Z,37.90
2023-02-11T05:10:03.006Z,40.53
2023-02-11T05:12:30.031Z,42.80
2023-02-11T05:14:57.062Z,47.92
2023-02-11T05:17:24.226Z,40.80
2023-02-11T05:19:51.314Z,47.95
2023-02-11T05:22:19.707Z,40.28
2023-02-11T05:24:46.708Z,44.15
2023-02-11T05:27:13.719Z,45.00
2023-02-11T05:29:40.786Z,43.78
2023-02-11T05:32:08.987Z,41.33
2023-02-11T05:34:36.673Z,41.92
2023-02-11T05:37:04.033Z,38.28
2023-02-11T05:39:38.337Z,43.80
2023-02-11T05:42:05.440Z,44.28
2023-02-11T05:44:32.573Z,50.15
2023-02-11T05:46:59.670Z,44.00
2023-02-11T05:49:26.714Z,39.33
2023-02-11T05:51:53.725Z,44.78
2023-02-11T05:54:20.837Z,42.70
2023-02-11T05:56:47.933Z,41.90
2023-02-11T05:59:15.447Z,41.78
2023-02-11T06:01:42.474Z,41.00
2023-02-11T06:04:09.500Z,41.72
2023-02-11T06:06:36.602Z,39.08
2023-02-11T06:09:03.687Z,43.97
2023-02-11T06:11:30.728Z,38.92
2023-02-11T06:13:57.803Z,39.45
2023-02-11T06:16:27.020Z,39.17
2023-02-11T06:18:54.119Z,37.90
2023-02-11T06:21:21.177Z,39.47
2023-02-11T06:23:49.092Z,40.25
2023-02-11T06:26:21.545Z,38.85
2023-02-11T06:28:48.597Z,38.97
2023-02-11T06:31:16.295Z,49.05
2023-02-11T06:33:43.406Z,48.63
2023-02-11T06:36:18.612Z,41.05
2023-02-11T06:38:46.252Z,39.40
2023-02-11T06:41:14.156Z,42.05
2023-02-11T06:43:42.039Z,44.70
2023-02-11T06:46:09.305Z,47.67
2023-02-11T06:48:36.680Z,46.70
2023-02-11T06:51:08.277Z,48.00
2023-02-11T06:53:36.286Z,54.15
2023-02-11T06:56:04.300Z,42.90
2023-02-11T06:58:31.702Z,43.28
2023-02-11T07:00:58.741Z,37.40
2023-02-11T07:03:26.082Z,42.55
2023-02-11T07:05:53.470Z,40.22
2023-02-11T07:08:20.505Z,43.72
2023-02-11T07:10:47.524Z,40.17
2023-02-11T07:13:14.532Z,42.92
2023-02-11T07:15:42.626Z,38.28
2023-02-11T07:18:09.668Z,43.40
2023-02-11T07:20:37.481Z,44.35
2023-02-11T07:23:04.476Z,46.47
2023-02-11T07:25:31.596Z,43.35
2023-02-11T07:27:58.619Z,44.28
2023-02-11T07:30:25.663Z,47.10
2023-02-11T07:32:52.658Z,44.92
2023-02-11T07:35:19.682Z,45.22
2023-02-11T07:37:46.721Z,42.28
2023-02-11T07:40:13.727Z,49.53
2023-02-11T07:42:41.575Z,42.17
2023-02-11T07:45:08.921Z,42.15
2023-02-11T07:47:37.043Z,45.92
2023-02-11T07:50:04.093Z,43.22
2023-02-11T07:52:31.493Z,49.25
2023-02-11T07:54:58.509Z,43.30
2023-02-11T07:57:25.536Z,40.65
2023-02-11T07:59:53.883Z,41.67
2023-02-11T08:02:20.918Z,45.75
2023-02-11T08:04:48.023Z,41.65
2023-02-11T08:07:15.945Z,42.58
2023-02-11T08:09:43.059Z,46.05
2023-02-11T08:12:10.513Z,40.42
2023-02-11T08:14:37.680Z,47.97
2023-02-11T08:17:04.880Z,40.42
2023-02-11T08:19:34.148Z,43.88
2023-02-11T08:22:02.358Z,47.28
2023-02-11T08:24:29.422Z,43.58
2023-02-11T08:26:56.617Z,44.38
2023-02-11T08:29:23.652Z,46.70
2023-02-11T08:31:50.756Z,49.72
2023-02-11T08:34:19.059Z,43.00
2023-02-11T08:36:46.755Z,44.78
2023-02-11T08:39:21.297Z,44.08
2023-02-11T08:41:49.174Z,48.83
2023-02-11T08:44:16.488Z,40.50
2023-02-11T08:46:43.505Z,47.03
2023-02-11T08:49:10.678Z,45.95
2023-02-11T08:51:37.769Z,48.05
2023-02-11T08:54:06.091Z,48.72
2023-02-11T08:56:33.550Z,54.47
2023-02-11T08:59:00.604Z,50.90
2023-02-11T09:01:29.718Z,47.20
2023-02-11T09:03:57.425Z,44.42
2023-02-11T09:06:25.344Z,48.63
2023-02-11T09:08:53.786Z,50.08
2023-02-11T09:11:21.679Z,50.45
2023-02-11T09:13:48.874Z,48.33
2023-02-11T09:16:21.104Z,49.67
2023-02-11T09:18:48.556Z,57.80
2023-02-11T09:21:15.989Z,47.85
2023-02-11T09:23:47.739Z,46.97
2023-02-11T09:26:16.636Z,50.35
2023-02-11T09:28:43.649Z,46.10
2023-02-11T09:31:11.877Z,44.83
2023-02-11T09:33:39.278Z,47.38
2023-02-11T09:36:06.891Z,47.08
2023-02-11T09:38:35.298Z,45.95
2023-02-11T09:41:07.524Z,45.33
2023-02-11T09:43:43.666Z,47.63
2023-02-11T09:46:13.790Z,47.95
2023-02-11T09:48:42.220Z,49.83
2023-02-11T09:51:15.810Z,50.80
2023-02-11T09:53:43.784Z,46.78
2023-02-11T09:56:15.245Z,55.20
2023-02-11T09:58:44.140Z,51.95
2023-02-11T10:01:20.900Z,49.72
2023-02-11T10:04:07.026Z,48.20
2023-02-11T10:06:39.707Z,46.13
2023-02-11T10:09:25.660Z,43.95
2023-02-11T10:12:01.485Z,51.97
2023-02-11T10:14:28.532Z,51.97
2023-02-11T10:17:00.626Z,54.75
2023-02-11T10:19:43.825Z,54.42
2023-02-11T10:22:23.378Z,53.28
2023-02-11T10:25:00.456Z,52.05
2023-02-11T10:27:31.269Z,50.70
2023-02-11T10:30:03.316Z,51.22
2023-02-11T10:32:36.364Z,46.60
2023-02-11T10:35:04.908Z,48.30
2023-02-11T10:37:32.012Z,45.38
2023-02-11T10:39:59.082Z,51.97
2023-02-11T10:42:26.189Z,48.92
2023-02-11T10:44:53.209Z,56.10
2023-02-11T10:47:22.508Z,50.80
2023-02-11T10:49:49.560Z,54.03
2023-02-11T10:52:23.966Z,60.42
2023-02-11T10:54:58.606Z,50.35
2023-02-11T10:57:28.888Z,52.60
2023-02-11T11:00:00.616Z,53.83
2023-02-11T11:02:35.241Z,48.92
2023-02-11T11:05:04.762Z,55.30
2023-02-11T11:07:33.454Z,51.72
2023-02-11T11:10:05.456Z,52.72
2023-02-11T11:12:32.510Z,54.97
2023-02-11T11:15:01.886Z,55.03
2023-02-11T11:17:29.234Z,51.92
2023-02-11T11:20:14.877Z,49.88
2023-02-11T11:22:42.556Z,52.90
2023-02-11T11:25:29.776Z,50.08
2023-02-11T11:27:59.106Z,59.03
2023-02-11T11:30:28.933Z,54.72
2023-02-11T11:32:56.511Z,60.17
2023-02-11T11:35:28.527Z,63.28
2023-02-11T11:38:05.825Z,58.60
2023-02-11T11:40:34.184Z,59.58
2023-02-11T11:43:13.416Z,57.03
2023-02-11T11:45:40.964Z,57.03
2023-02-11T11:48:14.371Z,54.35
2023-02-11T11:50:53.134Z,56.17
2023-02-11T11:53:37.905Z,51.42
2023-02-11T11:56:24.909Z,54.30
2023-02-11T11:58:52.958Z,50.50
2023-02-11T12:01:26.164Z,51.25
2023-02-11T12:03:56.273Z,52.88
2023-02-11T12:06:42.496Z,47.78
2023-02-11T12:09:15.792Z,49.38
2023-02-11T12:11:53.582Z,50.45
2023-02-11T12:14:27.983Z,50.90
2023-02-11T12:17:03.632Z,48.08
2023-02-11T12:19:40.218Z,49.13
2023-02-11T12:22:22.292Z,49.50
2023-02-11T12:25:24.929Z,48.53
2023-02-11T12:28:18.390Z,45.92
2023-02-11T12:31:06.297Z,48.60
2023-02-11T12:33:36.384Z,47.78
2023-02-11T12:36:09.797Z,49.50
2023-02-11T12:38:55.799Z,52.00
2023-02-11T12:41:50.695Z,50.88
2023-02-11T12:44:37.286Z,48.17
2023-02-11T12:47:21.794Z,52.33
2023-02-11T12:49:48.990Z,60.80
2023-02-11T12:52:26.208Z,51.22
2023-02-11T12:55:04.756Z,48.83
2023-02-11T12:57:32.797Z,49.28
2023-02-11T13:00:32.157Z,47.15
2023-02-11T13:03:13.668Z,48.45
2023-02-11T13:05:47.090Z,46.93
2023-02-11T13:08:16.710Z,51.15
2023-02-11T13:10:52.123Z,49.83
2023-02-11T13:13:22.023Z,52.33
2023-02-11T13:16:11.582Z,51.03
2023-02-11T13:18:51.704Z,47.60
2023-02-11T13:21:18.712Z,55.73
2023-02-11T13:23:51.808Z,51.28
2023-02-11T13:26:26.358Z,44.83
2023-02-11T13:29:02.546Z,51.37
2023-02-11T13:31:30.210Z,54.05
2023-02-11T13:33:57.295Z,50.08
2023-02-11T13:36:28.425Z,54.43
2023-02-11T13:38:57.426Z,54.17
2023-02-11T13:41:39.030Z,52.75
2023-02-11T13:44:09.051Z,59.45
2023-02-11T13:46:49.890Z,70.75
2023-02-11T13:49:21.450Z,60.92
2023-02-11T13:51:48.869Z,73.95
2023-02-11T13:54:24.334Z,68.90
2023-02-11T13:57:10.370Z,55.57
2023-02-11T13:59:37.373Z,52.20
2023-02-11T14:02:39.060Z,49.45
2023-02-11T14:05:24.851Z,54.00
2023-02-11T14:08:28.899Z,55.28
2023-02-11T14:11:00.038Z,52.42
2023-02-11T14:13:27.085Z,51.13
2023-02-11T14:16:13.473Z,59.47
2023-02-11T14:18:46.380Z,55.33
2023-02-11T14:21:33.677Z,56.83
2023-02-11T14:24:04.906Z,58.38
2023-02-11T14:26:50.778Z,59.55
2023-02-11T14:29:36.640Z,56.78
2023-02-11T14:32:22.476Z,89.78
2023-02-11T14:35:10.783Z,91.70
2023-02-11T14:37:50.031Z,75.63
2023-02-11T14:40:41.415Z,62.85
2023-02-11T14:43:13.165Z,61.90
2023-02-11T14:45:40.786Z,60.93
2023-02-11T14:48:18.478Z,54.73
2023-02-11T14:50:51.271Z,49.00
2023-02-11T14:53:20.303Z,52.05
2023-02-11T14:55:54.942Z,52.50
2023-02-11T14:58:23.981Z,53.40
2023-02-11T15:00:55.975Z,48.10
2023-02-11T15:03:36.768Z,53.53
2023-02-11T15:06:08.544Z,56.80
2023-02-11T15:08:38.221Z,63.97
2023-02-11T15:11:10.251Z,55.50
2023-02-11T15:13:37.392Z,48.93
2023-02-11T15:16:09.862Z,49.77
2023-02-11T15:18:42.109Z,51.97
2023-02-11T15:21:09.716Z,43.83
2023-02-11T15:23:37.129Z,47.10
2023-02-11T15:26:12.568Z,56.13
2023-02-11T15:28:39.600Z,45.73
2023-02-11T15:31:15.117Z,49.73
2023-02-11T15:33:42.373Z,46.27
2023-02-11T15:36:13.559Z,51.47
2023-02-11T15:38:40.933Z,47.57
2023-02-11T15:41:08.426Z,42.00
2023-02-11T15:43:46.607Z,45.40
2023-02-11T15:46:15.078Z,41.30
2023-02-11T15:48:43.799Z,43.15
2023-02-11T15:51:13.883Z,41.00
2023-02-11T15:53:43.176Z,45.20
2023-02-11T15:56:33.219Z,40.83
2023-02-11T15:59:01.560Z,42.83
2023-02-11T16:01:35.533Z,43.45
2023-02-11T16:04:03.117Z,44.10
2023-02-11T16:06:40.812Z,58.80
2023-02-11T16:09:13.794Z,60.72
2023-02-11T16:11:47.219Z,53.50
2023-02-11T16:14:29.657Z,43.92
2023-02-11T16:16:58.653Z,45.80
2023-02-11T16:19:26.629Z,44.78
2023-02-11T16:21:54.374Z,38.30
2023-02-11T16:24:29.195Z,40.72
2023-02-11T16:26:58.105Z,48.28
2023-02-11T16:29:26.700Z,47.97
2023-02-11T16:31:55.310Z,45.45
2023-02-11T16:34:26.289Z,58.03
2023-02-11T16:36:53.617Z,54.30
2023-02-11T16:39:24.172Z,51.97
2023-02-11T16:41:52.336Z,52.57
2023-02-11T16:44:19.728Z,54.45
2023-02-11T16:46:46.861Z,45.15
2023-02-11T16:49:19.090Z,58.85
2023-02-11T16:51:47.322Z,40.72
2023-02-11T16:54:15.114Z,38.55
2023-02-11T16:56:42.511Z,40.88
2023-02-11T16:59:09.966Z,43.58
2023-02-11T17:01:38.372Z,40.60
2023-02-11T17:04:06.233Z,43.17
2023-02-11T17:06:34.094Z,44.00
2023-02-11T17:09:01.277Z,42.40
2023-02-11T17:11:28.405Z,46.60
2023-02-11T17:13:55.497Z,39.53
2023-02-11T17:16:24.829Z,46.20
2023-02-11T17:18:52.337Z,40.50
2023-02-11T17:21:19.484Z,38.45
2023-02-11T17:23:46.504Z,43.65
2023-02-11T17:26:13.486Z,39.97
2023-02-11T17:28:41.541Z,39.78
2023-02-11T17:31:09.277Z,35.58
2023-02-11T17:33:37.733Z,42.85
2023-02-11T17:36:08.552Z,46.92
2023-02-11T17:38:36.084Z,52.97
2023-02-11T17:41:03.397Z,55.03
2023-02-11T17:43:30.455Z,53.13
2023-02-11T17:45:58.154Z,52.53
2023-02-11T17:48:25.336Z,48.50
2023-02-11T17:50:52.412Z,51.22
2023-02-11T17:53:19.412Z,45.85
2023-02-11T17:55:46.459Z,47.45
2023-02-11T17:58:14.525Z,46.03
2023-02-11T18:00:42.676Z,51.25
2023-02-11T18:03:09.768Z,44.08
2023-02-11T18:05:37.574Z,57.67
2023-02-11T18:08:05.841Z,40.72
2023-02-11T18:10:34.484Z,42.53
2023-02-11T18:13:02.009Z,43.72
2023-02-11T18:15:29.064Z,42.60
2023-02-11T18:17:56.326Z,39.75
2023-02-11T18:20:23.340Z,37.60
2023-02-11T18:22:50.676Z,40.60
2023-02-11T18:25:18.713Z,40.22
2023-02-11T18:27:46.571Z,39.10
2023-02-11T18:30:18.059Z,47.85
2023-02-11T18:32:46.299Z,43.40
2023-02-11T18:35:15.138Z,101.25
2023-02-11T18:37:43.194Z,69.93
2023-02-11T18:40:10.836Z,55.20
2023-02-11T18:42:37.967Z,56.30
2023-02-11T18:45:12.087Z,69.82
2023-02-11T18:47:39.714Z,56.20
2023-02-11T18:50:07.491Z,46.90
2023-02-11T18:52:36.786Z,57.15
2023-02-11T18:55:04.207Z,45.22
2023-02-11T18:57:32.482Z,44.45
2023-02-11T18:59:59.562Z,43.45
2023-02-11T19:02:26.888Z,40.25
2023-02-11T19:04:54.017Z,37.95
2023-02-11T19:07:21.022Z,41.13
2023-02-11T19:09:48.061Z,37.90
2023-02-11T19:12:15.112Z,37.47
2023-02-11T19:14:42.154Z,41.30
2023-02-11T19:17:13.313Z,47.72
2023-02-11T19:19:43.276Z,42.22
2023-02-11T19:22:10.958Z,41.33
2023-02-11T19:24:38.103Z,43.65
2023-02-11T19:27:05.756Z,37.85
2023-02-11T19:29:35.204Z,38.63
2023-02-11T19:32:03.243Z,34.38
2023-02-11T19:34:30.303Z,37.15
2023-02-11T19:36:59.428Z,39.97
2023-02-11T19:39:26.907Z,47.22
2023-02-11T19:41:54.380Z,52.97
2023-02-11T19:44:21.452Z,40.47
2023-02-11T19:46:50.155Z,33.90
2023-02-11T19:49:22.842Z,35.28
2023-02-11T19:51:53.758Z,35.70
2023-02-11T19:54:20.948Z,43.60
2023-02-11T19:56:48.717Z,44.08
2023-02-11T19:59:16.544Z,45.72
2023-02-11T20:01:46.065Z,37.17
2023-02-11T20:04:13.161Z,39.97
2023-02-11T20:06:40.213Z,36.83
2023-02-11T20:09:09.933Z,38.40
2023-02-11T20:11:37.824Z,38.47
2023-02-11T20:14:06.658Z,34.28
2023-02-11T20:16:47.618Z,39.08
2023-02-11T20:19:19.288Z,36.88
2023-02-11T20:21:47.853Z,40.05
2023-02-11T20:24:15.767Z,37.25
2023-02-11T20:26:43.091Z,33.72
2023-02-11T20:29:10.148Z,37.67
2023-02-11T20:31:37.688Z,38.90
2023-02-11T20:34:04.846Z,35.80
2023-02-11T20:36:35.423Z,37.78
2023-02-11T20:39:03.314Z,37.83
2023-02-11T20:41:32.581Z,37.25
2023-02-11T20:44:00.853Z,37.20
2023-02-11T20:46:28.887Z,30.02
2023-02-11T20:48:57.116Z,40.30
2023-02-11T20:51:25.532Z,36.05
2023-02-11T20:53:53.182Z,41.60
2023-02-11T20:56:28.693Z,40.58
2023-02-11T20:58:57.387Z,38.15
2023-02-11T21:01:29.322Z,40.00
2023-02-11T21:04:00.636Z,35.20
2023-02-11T21:06:28.428Z,42.67
2023-02-11T21:08:55.523Z,33.13
2023-02-11T21:11:22.595Z,35.42
2023-02-11T21:13:50.977Z,41.40
2023-02-11T21:16:22.511Z,43.40
2023-02-11T21:18:50.666Z,45.35
2023-02-11T21:21:18.324Z,40.40
2023-02-11T21:23:45.872Z,38.08
2023-02-11T21:26:13.122Z,36.00
2023-02-11T21:28:41.179Z,38.25
2023-02-11T21:31:08.578Z,38.10
2023-02-11T21:33:35.680Z,37.50
2023-02-11T21:36:03.832Z,42.30
2023-02-11T21:38:31.292Z,40.67
2023-02-11T21:41:03.300Z,40.95
2023-02-11T21:43:30.430Z,41.10
2023-02-11T21:45:57.915Z,41.00
2023-02-11T21:48:25.699Z,40.30
2023-02-11T21:50:53.321Z,47.08
2023-02-11T21:53:20.552Z,43.50
2023-02-11T21:55:47.713Z,47.08
2023-02-11T21:58:14.927Z,38.97
2023-02-11T22:00:42.078Z,42.45
2023-02-11T22:03:09.206Z,37.33
2023-02-11T22:05:36.288Z,35.72
2023-02-11T22:08:03.405Z,31.98
2023-02-11T22:10:30.442Z,39.70
2023-02-11T22:12:57.466Z,34.95
2023-02-11T22:15:24.474Z,41.13
2023-02-11T22:17:51.545Z,49.42
2023-02-11T22:20:18.596Z,42.13
2023-02-11T22:22:45.681Z,47.10
2023-02-11T22:25:13.825Z,55.80
2023-02-11T22:27:41.018Z,49.38
2023-02-11T22:30:08.342Z,48.15
2023-02-11T22:32:35.405Z,48.67
2023-02-11T22:35:02.584Z,50.85
2023-02-11T22:37:29.763Z,47.15
2023-02-11T22:39:56.917Z,41.67
2023-02-11T22:42:24.057Z,38.22
2023-02-11T22:44:51.224Z,41.63
2023-02-11T22:47:18.342Z,43.72
2023-02-11T22:49:46.582Z,40.13
2023-02-11T22:52:14.036Z,38.53
2023-02-11T22:54:42.134Z,40.63
2023-02-11T22:57:09.299Z,40.95
2023-02-11T22:59:36.435Z,40.03
2023-02-11T23:02:03.951Z,45.15
2023-02-11T23:04:31.111Z,36.13
2023-02-11T23:06:59.226Z,38.20
2023-02-11T23:09:26.253Z,36.03
2023-02-11T23:11:54.402Z,39.92
2023-02-11T23:14:21.688Z,47.63
2023-02-11T23:16:50.488Z,43.10
2023-02-11T23:19:17.563Z,43.25
2023-02-11T23:21:44.612Z,43.90
2023-02-11T23:24:13.273Z,45.33
2023-02-11T23:26:41.716Z,40.53
2023-02-11T23:29:09.147Z,43.08
2023-02-11T23:31:39.740Z,35.40
2023-02-11T23:34:07.368Z,38.42
2023-02-11T23:36:34.434Z,38.97
2023-02-11T23:39:01.732Z,37.35
2023-02-11T23:41:28.905Z,40.67
2023-02-11T23:43:56.985Z,43.78
2023-02-11T23:46:24.834Z,41.20
2023-02-11T23:48:53.010Z,42.70
2023-02-11T23:51:20.205Z,46.92
2023-02-11T23:53:49.156Z,43.05
2023-02-11T23:56:18.425Z,47.10
2023-02-11T23:58:48.120Z,46.55
